Time;durP1;ratioP1;P1;durP2;ratioP2;P2;SDS_P1;SDS_P2;PMS_P1;PMS_P2;Temp;Humidity;BMP_temperature;BMP_pressure;BME280_temperature;BME280_humidity;BME280_pressure;Samples;Min_cycle;Max_cycle;Signal;HPM_P1;HPM_P2
2022/08/03 00:02:19;;;;;;;2.90;2.30;;;29.50;62.00;;;;;;5094829;28;20934;-67
2022/08/03 00:04:48;;;;;;;2.63;2.43;;;29.50;61.80;;;;;;5094637;28;20532;-66
2022/08/03 00:07:17;;;;;;;2.13;2.03;;;29.50;61.70;;;;;;5076624;28;20800;-66
2022/08/03 00:09:46;;;;;;;2.47;2.27;;;29.40;61.80;;;;;;5085951;28;20465;-67
2022/08/03 00:12:14;;;;;;;2.20;2.10;;;29.40;61.80;;;;;;5094363;28;20525;-66
2022/08/03 00:14:44;;;;;;;2.63;2.50;;;29.40;61.80;;;;;;5094704;28;20441;-67
2022/08/03 00:17:12;;;;;;;2.40;2.30;;;29.40;61.80;;;;;;5095302;28;20437;-66
2022/08/03 00:19:40;;;;;;;2.77;2.57;;;29.40;61.80;;;;;;5094767;28;20786;-67
2022/08/03 00:22:08;;;;;;;2.17;2.07;;;29.40;61.80;;;;;;5094117;28;20454;-67
2022/08/03 00:24:37;;;;;;;2.40;2.30;;;29.40;61.80;;;;;;5094166;28;20465;-66
2022/08/03 00:27:06;;;;;;;2.30;2.20;;;29.40;61.80;;;;;;5086169;28;20446;-66
2022/08/03 00:29:35;;;;;;;2.30;2.20;;;29.40;61.80;;;;;;5089389;28;20448;-66
2022/08/03 00:32:23;;;;;;;2.40;2.30;;;29.40;61.80;;;;;;5094482;28;20509;-67
2022/08/03 00:34:52;;;;;;;2.60;2.50;;;29.30;61.90;;;;;;5093639;28;20455;-67
2022/08/03 00:37:26;;;;;;;2.10;2.00;;;29.30;61.90;;;;;;5094616;28;20915;-67
2022/08/03 00:40:11;;;;;;;2.57;2.40;;;29.30;61.90;;;;;;5094029;28;20443;-66
2022/08/03 00:42:52;;;;;;;2.40;2.30;;;29.30;61.90;;;;;;5093511;28;20455;-66
2022/08/03 00:45:23;;;;;;;2.40;2.30;;;29.30;62.00;;;;;;5094145;28;20448;-66
2022/08/03 00:47:52;;;;;;;2.50;2.30;;;29.30;62.00;;;;;;5094342;28;20809;-66
2022/08/03 00:50:22;;;;;;;2.30;2.20;;;29.30;62.00;;;;;;5094358;28;20439;-67
2022/08/03 00:52:53;;;;;;;1.80;1.70;;;29.30;62.00;;;;;;5074462;28;20538;-67
2022/08/03 00:55:21;;;;;;;2.27;2.17;;;29.30;62.00;;;;;;5092904;28;20871;-67
2022/08/03 00:57:51;;;;;;;2.17;2.07;;;29.20;62.00;;;;;;5094023;28;20455;-66
2022/08/03 01:00:21;;;;;;;1.90;1.80;;;29.20;62.00;;;;;;5074083;28;20442;-67
2022/08/03 01:02:50;;;;;;;2.27;2.17;;;29.20;62.00;;;;;;5093464;28;20541;-67
2022/08/03 01:05:19;;;;;;;2.80;2.60;;;29.20;62.00;;;;;;5093442;28;20531;-67
2022/08/03 01:08:01;;;;;;;2.10;2.00;;;29.20;62.00;;;;;;5094334;28;21203;-66
2022/08/03 01:10:39;;;;;;;2.53;2.33;;;29.20;62.00;;;;;;5093994;28;20458;-66
2022/08/03 01:13:21;;;;;;;2.10;2.00;;;29.20;62.00;;;;;;5083123;28;20477;-68
2022/08/03 01:16:31;;;;;;;2.70;2.50;;;29.20;62.00;;;;;;5073647;28;20491;-66
2022/08/03 01:19:22;;;;;;;2.60;2.40;;;29.20;62.00;;;;;;5073793;28;20423;-66
2022/08/03 01:21:59;;;;;;;2.70;2.60;;;29.20;62.00;;;;;;5087704;28;20488;-67
2022/08/03 01:24:37;;;;;;;2.47;2.27;;;29.20;62.00;;;;;;5091955;28;21024;-66
2022/08/03 01:27:12;;;;;;;2.60;2.47;;;29.20;62.10;;;;;;5076024;28;20468;-66
2022/08/03 01:30:04;;;;;;;2.90;2.70;;;29.10;62.00;;;;;;5093310;28;20477;-67
2022/08/03 01:32:42;;;;;;;2.50;2.30;;;29.10;62.00;;;;;;5081582;28;20475;-67
2022/08/03 01:35:35;;;;;;;2.30;2.17;;;29.10;62.10;;;;;;5086716;28;20956;-67
2022/08/03 01:38:10;;;;;;;2.20;2.10;;;29.10;62.00;;;;;;5092807;28;20446;-67
2022/08/03 01:40:41;;;;;;;2.37;2.27;;;29.10;62.10;;;;;;5093242;28;20833;-67
2022/08/03 01:43:13;;;;;;;2.30;2.20;;;29.10;62.10;;;;;;5074898;28;20461;-67
2022/08/03 01:46:04;;;;;;;2.63;2.43;;;29.10;62.10;;;;;;5093533;28;20485;-67
2022/08/03 01:48:33;;;;;;;2.30;2.20;;;29.10;62.10;;;;;;5092663;28;20440;-66
2022/08/03 01:51:01;;;;;;;2.90;2.70;;;29.10;62.10;;;;;;5092330;28;20978;-67
2022/08/03 01:53:33;;;;;;;2.60;2.50;;;29.10;62.00;;;;;;5074460;28;20491;-66
2022/08/03 01:56:05;;;;;;;2.30;2.20;;;29.10;62.10;;;;;;5083550;28;20788;-67
2022/08/03 01:58:35;;;;;;;2.63;2.43;;;29.10;62.10;;;;;;5072424;28;20488;-67
2022/08/03 02:04:16;;;;;;;2.60;2.50;;;29.00;62.00;;;;;;5091935;28;20506;-67
2022/08/03 02:06:46;;;;;;;2.70;2.37;;;29.00;62.00;;;;;;5092920;28;20475;-67
2022/08/03 02:09:29;;;;;;;1.90;1.80;;;29.00;62.00;;;;;;5086772;28;21029;-67
2022/08/03 02:11:59;;;;;;;2.43;2.33;;;29.00;62.00;;;;;;5092113;28;20464;-67
2022/08/03 02:14:28;;;;;;;2.70;2.60;;;29.00;62.00;;;;;;5091793;28;20494;-68
2022/08/03 02:16:58;;;;;;;2.80;2.60;;;29.00;62.00;;;;;;5093019;28;20473;-68
2022/08/03 02:19:27;;;;;;;4.30;2.20;;;29.00;62.00;;;;;;5092080;28;20429;-68
2022/08/03 02:22:03;;;;;;;2.17;2.00;;;29.00;62.00;;;;;;5092023;28;20544;-68
2022/08/03 02:24:32;;;;;;;2.50;2.30;;;29.00;62.00;;;;;;5091935;28;20513;-68
2022/08/03 02:27:01;;;;;;;2.30;2.20;;;29.00;62.00;;;;;;5084676;28;20495;-68
2022/08/03 02:29:33;;;;;;;2.50;2.40;;;29.00;62.00;;;;;;5085581;28;20501;-68
2022/08/03 02:32:12;;;;;;;2.40;2.30;;;28.90;62.10;;;;;;5091763;28;20499;-68
2022/08/03 02:34:48;;;;;;;2.23;2.13;;;28.90;62.70;;;;;;5092689;28;20435;-69
2022/08/03 02:37:18;;;;;;;2.20;2.10;;;28.90;62.90;;;;;;5092609;28;20447;-68
2022/08/03 02:39:50;;;;;;;2.10;2.00;;;28.90;62.20;;;;;;5091108;28;20952;-68
2022/08/03 02:42:22;;;;;;;2.30;2.20;;;28.90;62.10;;;;;;5091844;28;20449;-68
2022/08/03 02:44:53;;;;;;;2.33;2.20;;;28.90;62.10;;;;;;5095881;28;20519;-68
2022/08/03 02:47:23;;;;;;;2.63;2.43;;;28.90;62.10;;;;;;5097758;28;20452;-68
2022/08/03 02:49:54;;;;;;;1.93;1.80;;;28.90;62.10;;;;;;5097834;28;20432;-68
2022/08/03 02:52:25;;;;;;;2.57;2.37;;;28.90;62.00;;;;;;5094756;28;20479;-69
2022/08/03 02:54:56;;;;;;;2.50;2.40;;;28.90;62.00;;;;;;5096843;28;20424;-68
2022/08/03 02:57:28;;;;;;;1.70;1.60;;;28.90;62.00;;;;;;5097706;28;20457;-68
2022/08/03 02:59:57;;;;;;;2.50;2.30;;;28.90;62.00;;;;;;5094560;28;20449;-68
2022/08/03 03:02:28;;;;;;;2.00;1.90;;;28.90;62.00;;;;;;5090537;28;20455;-68
2022/08/03 03:04:57;;;;;;;2.60;2.50;;;28.80;62.00;;;;;;5091873;28;20494;-68
2022/08/03 03:07:47;;;;;;;2.17;2.07;;;28.80;62.00;;;;;;5092135;28;20533;-68
2022/08/03 03:10:21;;;;;;;2.00;1.90;;;28.80;62.00;;;;;;5090691;28;20893;-68
2022/08/03 03:12:52;;;;;;;2.30;2.20;;;28.80;62.00;;;;;;5075583;28;20441;-68
2022/08/03 03:15:20;;;;;;;1.83;1.73;;;28.80;62.00;;;;;;5071817;28;20444;-68
2022/08/03 03:17:52;;;;;;;2.83;2.30;;;28.80;62.10;;;;;;5071482;28;20444;-68
2022/08/03 03:20:21;;;;;;;2.13;2.03;;;28.80;62.00;;;;;;5090580;28;20458;-68
2022/08/03 03:22:59;;;;;;;2.10;2.00;;;28.80;62.00;;;;;;5092096;28;20529;-68
2022/08/03 03:25:30;;;;;;;2.20;2.10;;;28.80;62.00;;;;;;5094081;28;20471;-68
2022/08/03 03:27:59;;;;;;;2.57;2.40;;;28.70;62.00;;;;;;5096264;28;20466;-68
2022/08/03 03:30:28;;;;;;;4.90;2.33;;;28.70;62.00;;;;;;5094010;28;20558;-68
2022/08/03 03:32:59;;;;;;;2.73;2.53;;;28.80;62.00;;;;;;5094623;28;20797;-68
2022/08/03 03:35:28;;;;;;;2.50;2.30;;;28.70;62.00;;;;;;5096103;28;20508;-68
2022/08/03 03:37:57;;;;;;;1.90;1.80;;;28.70;62.00;;;;;;5095302;28;20542;-68
2022/08/03 03:40:25;;;;;;;2.73;2.53;;;28.70;62.00;;;;;;5094346;28;20488;-68
2022/08/03 03:42:53;;;;;;;1.87;1.77;;;28.70;62.00;;;;;;5076114;28;20453;-68
2022/08/03 03:45:23;;;;;;;2.53;2.33;;;28.70;61.90;;;;;;5094767;28;20562;-68
2022/08/03 03:47:51;;;;;;;2.40;2.20;;;28.70;62.00;;;;;;5090452;28;20466;-68
2022/08/03 03:50:22;;;;;;;2.23;2.10;;;28.70;61.90;;;;;;5095431;28;20486;-68
2022/08/03 03:52:51;;;;;;;2.10;2.00;;;28.70;62.00;;;;;;5094409;28;20485;-68
2022/08/03 03:55:19;;;;;;;2.40;2.30;;;28.70;61.90;;;;;;5092888;28;20558;-68
2022/08/03 03:57:47;;;;;;;2.37;2.17;;;28.70;61.90;;;;;;5090696;28;20494;-68
2022/08/03 04:00:18;;;;;;;2.33;2.23;;;28.70;61.90;;;;;;5092104;28;20441;-68
2022/08/03 04:02:46;;;;;;;3.97;2.23;;;28.70;61.90;;;;;;5094294;28;20454;-68
2022/08/03 04:11:02;;;;;;;2.50;2.30;;;28.70;62.00;;;;;;5091872;28;20466;-68
2022/08/03 04:13:35;;;;;;;2.13;2.03;;;28.70;62.00;;;;;;5077417;28;20442;-68
2022/08/03 04:16:05;;;;;;;2.03;1.90;;;28.60;62.00;;;;;;5091760;28;20448;-68
2022/08/03 04:18:36;;;;;;;2.23;2.03;;;28.60;61.90;;;;;;5093778;28;20549;-68
2022/08/03 04:21:29;;;;;;;2.67;2.57;;;28.60;61.90;;;;;;5088115;28;20458;-68
2022/08/03 04:24:01;;;;;;;2.80;2.60;;;28.60;61.90;;;;;;5094092;28;20459;-68
2022/08/03 04:26:33;;;;;;;2.57;2.40;;;28.60;61.90;;;;;;5094692;28;20461;-70
2022/08/03 04:29:02;;;;;;;3.70;2.50;;;28.60;61.90;;;;;;5085758;28;20515;-68
2022/08/03 04:31:39;;;;;;;2.30;2.20;;;28.60;61.90;;;;;;5085934;28;20550;-68
2022/08/03 04:34:07;;;;;;;2.37;2.17;;;28.60;61.90;;;;;;5113063;28;20425;-68
2022/08/03 04:36:44;;;;;;;2.30;2.20;;;28.60;61.90;;;;;;5093886;28;20850;-70
2022/08/03 04:39:19;;;;;;;2.67;2.57;;;28.60;61.90;;;;;;5084571;28;20849;-69
2022/08/03 04:41:51;;;;;;;2.27;2.03;;;28.60;61.90;;;;;;5096516;28;20938;-68
2022/08/03 04:44:39;;;;;;;2.50;2.30;;;28.60;61.80;;;;;;5092659;28;20447;-68
2022/08/03 04:47:07;;;;;;;2.20;2.10;;;28.60;61.80;;;;;;5093188;28;20469;-68
2022/08/03 04:49:37;;;;;;;2.63;2.27;;;28.60;61.80;;;;;;5094164;28;20491;-68
2022/08/03 04:52:08;;;;;;;2.63;2.43;;;28.60;61.80;;;;;;5099999;28;20939;-68
2022/08/03 04:54:43;;;;;;;2.30;2.20;;;28.60;61.80;;;;;;5088869;28;20506;-68
2022/08/03 04:57:19;;;;;;;2.00;1.90;;;28.60;61.80;;;;;;5093074;28;20549;-68
2022/08/03 04:59:53;;;;;;;2.30;2.20;;;28.60;61.80;;;;;;5093688;28;20858;-68
2022/08/03 05:02:29;;;;;;;2.33;2.13;;;28.60;61.80;;;;;;5093251;28;20493;-68
2022/08/03 05:04:57;;;;;;;2.40;2.30;;;28.60;61.80;;;;;;5092685;28;20477;-68
2022/08/03 05:07:25;;;;;;;3.10;2.90;;;28.60;61.80;;;;;;5092503;28;20519;-68
2022/08/03 05:10:07;;;;;;;2.77;2.40;;;28.60;61.90;;;;;;5091969;28;20788;-68
2022/08/03 05:12:42;;;;;;;2.50;2.30;;;28.60;61.90;;;;;;5091932;28;20547;-69
2022/08/03 05:15:11;;;;;;;2.13;2.00;;;28.60;61.80;;;;;;5093117;28;20530;-68
2022/08/03 05:17:40;;;;;;;3.00;2.80;;;28.60;61.70;;;;;;5091870;28;20508;-68
2022/08/03 05:20:10;;;;;;;2.37;2.27;;;28.60;61.80;;;;;;5091061;28;20490;-68
2022/08/03 05:22:38;;;;;;;2.30;2.10;;;28.60;61.90;;;;;;5093326;28;20500;-68
2022/08/03 05:25:08;;;;;;;2.87;2.67;;;28.60;61.90;;;;;;5091970;28;20527;-68
2022/08/03 05:27:44;;;;;;;2.40;2.30;;;28.60;61.90;;;;;;5093114;28;20576;-69
2022/08/03 05:30:13;;;;;;;2.70;2.60;;;28.60;62.00;;;;;;5093232;28;20508;-67
2022/08/03 05:33:00;;;;;;;3.40;2.80;;;28.60;62.00;;;;;;5074234;28;20450;-68
2022/08/03 05:35:28;;;;;;;2.57;2.47;;;28.70;62.00;;;;;;5082517;28;20536;-67
2022/08/03 05:38:17;;;;;;;2.40;2.20;;;28.70;62.00;;;;;;5088966;28;20495;-68
2022/08/03 05:40:58;;;;;;;2.17;1.97;;;28.70;62.10;;;;;;5085360;28;20455;-68
2022/08/03 05:44:11;;;;;;;2.20;2.10;;;28.70;62.10;;;;;;5098924;28;20775;-68
2022/08/03 05:46:39;;;;;;;2.10;2.00;;;28.70;62.10;;;;;;5085437;28;20511;-67
2022/08/03 05:49:08;;;;;;;2.70;2.50;;;28.70;62.10;;;;;;5088364;28;20987;-69
2022/08/03 05:51:36;;;;;;;2.20;2.10;;;28.70;62.10;;;;;;5089858;28;20476;-68
2022/08/03 05:54:04;;;;;;;2.50;2.30;;;28.70;62.20;;;;;;5089996;28;20481;-68
2022/08/03 05:56:34;;;;;;;2.97;2.77;;;28.70;62.10;;;;;;5087189;28;20457;-68
2022/08/03 05:59:02;;;;;;;2.13;2.03;;;28.70;62.10;;;;;;5091675;28;20501;-68
2022/08/03 06:01:50;;;;;;;2.40;2.30;;;28.70;62.10;;;;;;5091631;28;20459;-68
2022/08/03 06:04:19;;;;;;;2.33;2.23;;;28.70;62.10;;;;;;5091523;28;20493;-68
2022/08/03 06:06:49;;;;;;;2.50;2.07;;;28.70;62.10;;;;;;5091500;28;20475;-68
2022/08/03 06:09:17;;;;;;;2.57;2.37;;;28.70;62.10;;;;;;5089194;28;20489;-68
2022/08/03 06:11:47;;;;;;;3.00;2.70;;;28.70;62.10;;;;;;5087474;28;20534;-68
2022/08/03 06:14:15;;;;;;;2.47;2.37;;;28.70;62.10;;;;;;5089594;28;20979;-68
2022/08/03 06:16:43;;;;;;;3.97;2.17;;;28.70;62.10;;;;;;5091395;28;20450;-69
2022/08/03 06:19:12;;;;;;;3.10;2.90;;;28.80;62.10;;;;;;5091525;28;20495;-69
2022/08/03 06:21:40;;;;;;;2.53;2.43;;;28.80;62.10;;;;;;5091973;28;20874;-68
2022/08/03 06:24:08;;;;;;;2.70;2.50;;;28.80;62.10;;;;;;5086523;28;20490;-70
2022/08/03 06:26:36;;;;;;;2.90;2.70;;;28.80;62.10;;;;;;5090695;28;20474;-68
2022/08/03 06:29:06;;;;;;;2.23;2.13;;;28.80;62.10;;;;;;5089424;28;20446;-68
2022/08/03 06:31:36;;;;;;;2.63;2.47;;;28.80;62.10;;;;;;5082545;28;20543;-68
2022/08/03 06:34:05;;;;;;;2.40;2.30;;;28.80;62.10;;;;;;5088825;28;20444;-68
2022/08/03 06:36:54;;;;;;;2.17;2.00;;;28.80;62.10;;;;;;5091150;28;20456;-68
2022/08/03 06:39:29;;;;;;;2.37;2.27;;;28.80;62.10;;;;;;5085196;28;20454;-66
2022/08/03 06:41:57;;;;;;;2.50;2.40;;;28.80;62.10;;;;;;5087478;28;20499;-66
2022/08/03 06:44:27;;;;;;;2.53;2.43;;;28.80;62.30;;;;;;5071545;28;20470;-66
2022/08/03 06:46:55;;;;;;;2.73;2.57;;;28.80;62.50;;;;;;5088311;28;21023;-66
2022/08/03 06:49:24;;;;;;;2.83;2.40;;;28.90;62.50;;;;;;5094699;28;20944;-65
2022/08/03 06:51:52;;;;;;;2.73;2.53;;;28.90;62.60;;;;;;5090917;28;20484;-66
2022/08/03 06:54:36;;;;;;;2.13;2.03;;;28.90;62.60;;;;;;5090156;28;21028;-66
2022/08/03 06:57:06;;;;;;;2.50;2.40;;;28.90;62.60;;;;;;5090691;28;20448;-67
2022/08/03 06:59:36;;;;;;;2.60;2.40;;;28.90;62.60;;;;;;5087851;28;20967;-67
2022/08/03 07:02:24;;;;;;;2.93;2.73;;;29.00;62.60;;;;;;5089667;28;20878;-66
2022/08/03 07:04:55;;;;;;;2.40;2.20;;;29.00;62.60;;;;;;5095950;28;20487;-66
2022/08/03 07:07:24;;;;;;;2.57;2.47;;;29.00;62.60;;;;;;5095264;28;20518;-66
2022/08/03 07:09:52;;;;;;;2.30;2.20;;;29.00;62.60;;;;;;5092211;28;20451;-66
2022/08/03 07:12:26;;;;;;;2.27;2.07;;;29.10;62.60;;;;;;5094715;28;20526;-68
2022/08/03 07:14:57;;;;;;;2.27;2.10;;;29.10;62.60;;;;;;5093283;28;20481;-66
2022/08/03 07:17:30;;;;;;;2.50;2.40;;;29.10;62.60;;;;;;5093451;28;20457;-67
2022/08/03 07:19:58;;;;;;;1.90;1.80;;;29.10;62.60;;;;;;5094606;28;20806;-67
2022/08/03 07:22:27;;;;;;;2.40;2.20;;;29.10;62.60;;;;;;5095803;28;20501;-66
2022/08/03 07:24:55;;;;;;;2.43;2.23;;;29.10;62.60;;;;;;5093831;28;20505;-66
2022/08/03 07:27:25;;;;;;;2.77;2.30;;;29.10;62.60;;;;;;5080789;28;20504;-66
2022/08/03 07:29:54;;;;;;;2.03;1.93;;;29.20;62.60;;;;;;5094399;28;20462;-67
2022/08/03 07:32:24;;;;;;;2.80;2.67;;;29.20;62.60;;;;;;5089407;28;20474;-66
2022/08/03 07:34:52;;;;;;;2.20;2.10;;;29.20;62.60;;;;;;5092801;28;20471;-66
2022/08/03 07:37:28;;;;;;;2.53;2.40;;;29.20;62.60;;;;;;5089802;28;20450;-66
2022/08/03 07:39:57;;;;;;;2.00;1.90;;;29.20;62.50;;;;;;5078450;28;20561;-66
2022/08/03 07:42:25;;;;;;;1.67;1.57;;;29.20;62.50;;;;;;5091367;28;20451;-67
2022/08/03 07:44:54;;;;;;;2.33;2.13;;;29.30;62.50;;;;;;5093901;28;20455;-66
2022/08/03 07:47:25;;;;;;;1.97;1.87;;;29.30;62.50;;;;;;5094271;28;20898;-66
2022/08/03 07:50:04;;;;;;;2.40;2.20;;;29.30;62.50;;;;;;5099312;28;20968;-67
2022/08/03 07:52:48;;;;;;;2.70;2.50;;;29.30;62.50;;;;;;5093863;28;20475;-66
2022/08/03 07:55:17;;;;;;;2.23;2.10;;;29.30;62.40;;;;;;5089432;28;20452;-66
2022/08/03 07:57:45;;;;;;;2.30;2.20;;;29.30;62.40;;;;;;5088311;28;20881;-67
2022/08/03 08:00:16;;;;;;;3.00;2.47;;;29.30;62.40;;;;;;5091571;28;20449;-67
2022/08/03 08:02:46;;;;;;;2.70;2.50;;;29.40;62.40;;;;;;5083487;28;20475;-67
2022/08/03 08:05:14;;;;;;;2.20;2.10;;;29.40;62.40;;;;;;5101097;28;20521;-67
2022/08/03 08:07:42;;;;;;;2.23;2.13;;;29.40;62.40;;;;;;5097246;28;20463;-66
2022/08/03 08:10:18;;;;;;;3.80;3.03;;;29.40;62.30;;;;;;5096740;28;20450;-67
2022/08/03 08:12:47;;;;;;;2.00;1.90;;;29.40;62.30;;;;;;5086373;28;20455;-66
2022/08/03 08:15:15;;;;;;;2.00;1.90;;;29.40;62.30;;;;;;5091081;28;20820;-67
2022/08/03 08:17:47;;;;;;;2.77;2.60;;;29.40;62.30;;;;;;5087340;28;20528;-66
2022/08/03 08:20:20;;;;;;;2.50;2.40;;;29.50;62.30;;;;;;5091530;28;20483;-66
2022/08/03 08:22:56;;;;;;;2.97;2.27;;;29.50;62.30;;;;;;5091426;28;20856;-67
2022/08/03 08:25:25;;;;;;;2.33;2.23;;;29.50;62.30;;;;;;5090479;28;20453;-67
2022/08/03 08:27:54;;;;;;;2.53;2.33;;;29.50;62.20;;;;;;5092725;28;21324;-66
2022/08/03 08:30:43;;;;;;;2.10;2.00;;;29.50;62.20;;;;;;5087651;28;20546;-66
2022/08/03 08:33:13;;;;;;;2.33;2.10;;;29.50;62.20;;;;;;5090441;28;20540;-67
2022/08/03 08:35:53;;;;;;;2.40;2.20;;;29.60;62.30;;;;;;5093538;28;20516;-66
2022/08/03 08:38:22;;;;;;;2.10;2.00;;;29.60;62.30;;;;;;5091895;28;20867;-70
2022/08/03 08:40:50;;;;;;;2.13;2.03;;;29.60;62.30;;;;;;5092348;28;20446;-69
2022/08/03 08:43:19;;;;;;;2.30;2.17;;;29.60;62.30;;;;;;5092060;28;20459;-68
2022/08/03 08:45:50;;;;;;;1.80;1.70;;;29.60;62.30;;;;;;5091865;28;20490;-68
2022/08/03 08:48:25;;;;;;;1.93;1.83;;;29.60;62.30;;;;;;5092528;28;20470;-68
2022/08/03 08:50:55;;;;;;;2.30;2.20;;;29.60;62.30;;;;;;5092222;28;20483;-68
2022/08/03 08:53:27;;;;;;;2.63;2.43;;;29.60;62.30;;;;;;5089940;28;20446;-68
2022/08/03 08:55:59;;;;;;;2.40;2.30;;;29.60;62.30;;;;;;5090332;28;20525;-67
2022/08/03 08:58:30;;;;;;;2.30;2.20;;;29.60;62.40;;;;;;5090952;28;20540;-68
2022/08/03 09:00:58;;;;;;;4.40;2.50;;;29.60;62.30;;;;;;5092972;28;20453;-70
2022/08/03 09:03:28;;;;;;;2.40;2.30;;;29.60;62.30;;;;;;5088990;28;20470;-68
2022/08/03 09:06:00;;;;;;;5.03;2.33;;;29.60;62.40;;;;;;5092897;28;20987;-69
2022/08/03 09:08:30;;;;;;;2.70;2.50;;;29.60;62.40;;;;;;5091225;28;20479;-67
2022/08/03 09:10:59;;;;;;;2.53;2.13;;;29.60;62.20;;;;;;5093373;28;20498;-65
2022/08/03 09:13:27;;;;;;;2.37;2.27;;;29.60;62.10;;;;;;5089585;28;20507;-65
2022/08/03 09:16:19;;;;;;;2.03;1.93;;;29.60;62.00;;;;;;5091643;28;20444;-65
2022/08/03 09:18:50;;;;;;;2.43;2.30;;;29.60;61.90;;;;;;5091417;28;20453;-65
2022/08/03 09:21:28;;;;;;;2.30;2.20;;;29.60;61.90;;;;;;5092616;28;20443;-65
2022/08/03 09:24:01;;;;;;;3.00;2.80;;;29.60;61.90;;;;;;5092478;28;20579;-65
2022/08/03 09:26:35;;;;;;;2.17;2.07;;;29.60;61.80;;;;;;5090236;28;20492;-65
2022/08/03 09:29:06;;;;;;;2.30;2.13;;;29.60;61.80;;;;;;5092426;28;20477;-65
2022/08/03 09:31:44;;;;;;;4.80;2.20;;;29.60;61.70;;;;;;5090163;28;20441;-65
2022/08/03 09:34:16;;;;;;;2.40;2.20;;;29.60;61.70;;;;;;5093408;28;20460;-65
2022/08/03 09:36:45;;;;;;;2.50;2.30;;;29.60;61.70;;;;;;5092778;28;20499;-66
2022/08/03 09:39:15;;;;;;;2.40;2.30;;;29.60;61.70;;;;;;5091925;28;20469;-69
2022/08/03 09:41:46;;;;;;;2.30;2.10;;;29.60;61.60;;;;;;5089555;28;20452;-75
2022/08/03 09:44:14;;;;;;;3.70;2.17;;;29.60;61.70;;;;;;5091534;28;20791;-73
2022/08/03 09:46:55;;;;;;;3.30;2.40;;;29.60;61.60;;;;;;5092092;28;20437;-69
2022/08/03 09:49:25;;;;;;;2.47;2.27;;;29.60;61.60;;;;;;5085117;28;20482;-69
2022/08/03 09:51:54;;;;;;;1.93;1.83;;;29.60;61.60;;;;;;5091845;28;20498;-69
2022/08/03 09:54:43;;;;;;;2.30;2.10;;;29.60;61.60;;;;;;5089316;28;20458;-71
2022/08/03 09:57:23;;;;;;;2.33;2.23;;;29.70;61.50;;;;;;5091784;28;20543;-69
2022/08/03 09:59:55;;;;;;;2.43;2.27;;;29.70;61.50;;;;;;5092389;28;20860;-69
2022/08/03 10:02:40;;;;;;;2.50;2.40;;;29.70;61.50;;;;;;5092231;28;20817;-71
2022/08/03 10:05:12;;;;;;;2.90;2.00;;;29.70;61.40;;;;;;5090427;28;20490;-70
2022/08/03 10:07:49;;;;;;;2.27;2.10;;;29.70;61.40;;;;;;5087968;28;20447;-70
2022/08/03 10:10:19;;;;;;;2.03;1.93;;;29.70;61.20;;;;;;5090883;28;20471;-70
2022/08/03 10:13:01;;;;;;;1.70;1.60;;;29.70;61.20;;;;;;5090625;28;20461;-70
2022/08/03 10:15:29;;;;;;;2.60;2.40;;;29.70;61.10;;;;;;5087850;28;20810;-69
2022/08/03 10:18:17;;;;;;;2.10;1.90;;;29.70;61.10;;;;;;5092943;28;20486;-69
2022/08/03 10:20:52;;;;;;;2.27;2.07;;;29.70;61.10;;;;;;5093243;28;20541;-70
2022/08/03 10:27:22;;;;;;;1.90;1.80;;;29.70;61.00;;;;;;5090473;28;20841;-71
2022/08/03 10:29:53;;;;;;;1.67;1.57;;;29.70;61.00;;;;;;5091543;28;20467;-69
2022/08/03 10:32:48;;;;;;;2.30;2.03;;;29.70;61.00;;;;;;5092525;28;20454;-70
2022/08/03 10:35:19;;;;;;;1.90;1.80;;;29.70;60.80;;;;;;5072984;28;20483;-72
2022/08/03 10:37:58;;;;;;;1.73;1.63;;;29.70;60.80;;;;;;5081741;28;20503;-69
2022/08/03 10:40:29;;;;;;;2.53;1.97;;;29.70;60.70;;;;;;5077102;28;20541;-69
2022/08/03 10:43:21;;;;;;;1.80;1.70;;;29.70;60.60;;;;;;5071553;28;20451;-81
2022/08/03 10:45:51;;;;;;;1.90;1.80;;;29.70;60.20;;;;;;5076319;28;20464;-76
2022/08/03 10:48:20;;;;;;;2.27;2.10;;;29.80;60.30;;;;;;5068258;28;20457;-79
2022/08/03 10:50:50;;;;;;;1.83;1.73;;;29.80;60.20;;;;;;5088620;28;20453;-80
2022/08/03 10:53:35;;;;;;;2.27;2.07;;;29.80;60.00;;;;;;5078276;28;20946;-79
2022/08/03 10:59:08;;;;;;;1.70;1.60;;;29.80;59.40;;;;;;5078644;28;20464;-76
2022/08/03 11:01:52;;;;;;;2.00;1.90;;;29.80;59.20;;;;;;5079046;28;20821;-74
2022/08/03 11:04:28;;;;;;;1.60;1.50;;;29.80;58.90;;;;;;5087346;28;21086;-77
2022/08/03 11:07:20;;;;;;;1.53;1.43;;;29.90;58.50;;;;;;5081827;28;20439;-76
2022/08/03 11:09:51;;;;;;;1.80;1.70;;;29.90;58.60;;;;;;5077167;28;20538;-76
2022/08/03 11:12:23;;;;;;;1.90;1.80;;;29.90;58.40;;;;;;5076219;28;20452;-75
2022/08/03 11:15:00;;;;;;;1.60;1.50;;;29.90;58.00;;;;;;5079116;28;20849;-76
2022/08/03 11:17:28;;;;;;;1.53;1.43;;;29.90;57.80;;;;;;5082709;28;20468;-75
2022/08/03 11:19:57;;;;;;;1.90;1.80;;;29.90;57.80;;;;;;5086703;28;20463;-75
2022/08/03 11:22:46;;;;;;;2.03;1.93;;;29.90;58.00;;;;;;5083968;28;20448;-74
2022/08/03 11:25:15;;;;;;;2.00;1.90;;;29.80;58.20;;;;;;5081426;28;20494;-75
2022/08/03 11:28:25;;;;;;;1.40;1.30;;;29.90;58.20;;;;;;5076990;28;20931;-73
2022/08/03 11:30:53;;;;;;;1.60;1.50;;;29.90;57.40;;;;;;5077482;28;20480;-73
2022/08/03 11:33:31;;;;;;;1.53;1.43;;;29.90;57.20;;;;;;5073632;28;20527;-73
2022/08/03 11:36:01;;;;;;;2.70;1.90;;;29.90;57.40;;;;;;5071989;28;21493;-73
2022/08/03 11:38:32;;;;;;;1.20;1.20;;;30.00;57.20;;;;;;5069495;28;20449;-73
2022/08/03 11:41:01;;;;;;;1.20;1.20;;;30.10;56.60;;;;;;5083838;28;20533;-73
2022/08/03 11:43:45;;;;;;;1.90;1.70;;;30.10;56.70;;;;;;5072607;28;20936;-73
2022/08/03 11:46:18;;;;;;;1.90;1.80;;;30.20;56.50;;;;;;5075820;28;20826;-76
2022/08/03 11:49:05;;;;;;;1.33;1.30;;;30.30;56.20;;;;;;5075914;28;20937;-74
2022/08/03 11:51:39;;;;;;;1.77;1.50;;;30.40;55.80;;;;;;5073069;28;20484;-72
2022/08/03 11:54:07;;;;;;;1.70;1.60;;;30.50;55.90;;;;;;5059804;28;20459;-72
2022/08/03 11:56:48;;;;;;;1.60;1.50;;;30.60;55.60;;;;;;5088008;28;20525;-73
2022/08/03 11:59:17;;;;;;;1.30;1.20;;;30.70;54.80;;;;;;5079553;28;20936;-72
2022/08/03 12:01:49;;;;;;;1.70;1.60;;;30.80;55.10;;;;;;5083693;28;20804;-74
2022/08/03 12:04:18;;;;;;;1.40;1.40;;;30.90;54.90;;;;;;5080104;28;20476;-74
2022/08/03 12:07:02;;;;;;;1.87;1.77;;;31.00;54.40;;;;;;5092330;28;20499;-80
2022/08/03 12:09:31;;;;;;;1.43;1.33;;;31.20;54.20;;;;;;5063580;28;20469;-77
2022/08/03 12:12:01;;;;;;;2.00;1.90;;;31.30;54.00;;;;;;5095206;28;21002;-75
2022/08/03 12:14:29;;;;;;;1.47;1.40;;;31.50;54.00;;;;;;5080523;28;20859;-72
2022/08/03 12:17:17;;;;;;;1.30;1.30;;;31.70;53.90;;;;;;5082596;28;20524;-79
2022/08/03 12:19:46;;;;;;;4.03;3.63;;;31.90;53.20;;;;;;5082493;28;20445;-74
2022/08/03 12:22:15;;;;;;;1.83;1.63;;;32.10;52.90;;;;;;5081932;28;20449;-75
2022/08/03 12:24:45;;;;;;;5.40;1.30;;;32.30;53.00;;;;;;5077661;28;20437;-76
2022/08/03 12:27:24;;;;;;;2.00;1.47;;;32.50;52.20;;;;;;5072877;28;20469;-74
2022/08/03 12:29:54;;;;;;;1.73;1.63;;;32.80;51.80;;;;;;5085380;28;20472;-74
2022/08/03 12:32:27;;;;;;;1.67;1.57;;;33.10;50.80;;;;;;5070958;28;20481;-74
2022/08/03 12:34:59;;;;;;;1.20;1.10;;;33.40;50.30;;;;;;5078066;28;20441;-72
2022/08/03 12:37:29;;;;;;;1.47;1.37;;;33.50;50.20;;;;;;5073525;28;20454;-68
2022/08/03 12:40:00;;;;;;;1.60;1.53;;;33.60;50.20;;;;;;5082994;28;20981;-69
2022/08/03 12:42:40;;;;;;;1.70;1.60;;;33.60;50.10;;;;;;5068159;28;20552;-71
2022/08/03 12:45:25;;;;;;;2.03;1.40;;;33.60;50.30;;;;;;5054399;28;20510;-69
2022/08/03 12:47:57;;;;;;;1.80;1.70;;;33.60;50.20;;;;;;5084715;28;20446;-65
2022/08/03 12:50:31;;;;;;;1.73;1.63;;;33.60;50.40;;;;;;5081194;28;20754;-66
2022/08/03 12:53:00;;;;;;;1.43;1.33;;;33.60;50.70;;;;;;5076566;28;20484;-65
2022/08/03 12:55:33;;;;;;;1.60;1.50;;;33.60;51.00;;;;;;5078621;28;20812;-65
2022/08/03 12:58:34;;;;;;;1.80;1.70;;;33.60;51.40;;;;;;5088762;28;21146;-65
2022/08/03 13:01:07;;;;;;;1.60;1.50;;;33.60;51.70;;;;;;5079463;28;20449;-65
2022/08/03 13:03:42;;;;;;;1.40;1.40;;;33.60;52.10;;;;;;5086245;28;20452;-65
2022/08/03 13:06:18;;;;;;;1.60;1.50;;;33.60;52.30;;;;;;5088587;28;20461;-66
2022/08/03 13:08:47;;;;;;;2.40;1.47;;;33.50;52.70;;;;;;5077381;28;20657;-66
2022/08/03 13:11:24;;;;;;;1.57;1.47;;;33.40;53.00;;;;;;5062781;28;21212;-66
2022/08/03 13:14:14;;;;;;;1.50;1.40;;;33.40;53.20;;;;;;5079253;28;20474;-66
2022/08/03 13:16:48;;;;;;;1.50;1.40;;;33.30;53.40;;;;;;5064238;28;20539;-66
2022/08/03 13:19:16;;;;;;;1.73;1.63;;;33.30;53.40;;;;;;5087679;28;21008;-66
2022/08/03 13:21:47;;;;;;;1.50;1.40;;;33.40;53.40;;;;;;5082710;28;20450;-71
2022/08/03 13:24:32;;;;;;;1.57;1.47;;;33.40;52.90;;;;;;5073137;28;20477;-71
2022/08/03 13:27:01;;;;;;;2.20;1.40;;;33.30;52.90;;;;;;5081923;28;20457;-68
2022/08/03 13:29:51;;;;;;;1.57;1.40;;;33.00;51.90;;;;;;5083560;28;20460;-68
2022/08/03 13:32:20;;;;;;;1.60;1.50;;;32.40;52.60;;;;;;5080691;28;20845;-66
2022/08/03 13:34:48;;;;;;;2.00;1.47;;;32.00;53.30;;;;;;5082478;28;20520;-65
2022/08/03 13:37:17;;;;;;;1.10;1.10;;;31.70;54.00;;;;;;5081783;28;20449;-68